Kezdőlap
METAR-TAF:

METAR-TAF

Repülőterek :

Berlevåg, Norvégia

földrajzi szélesség: 70-52N, földrajzi hosszúság: 029-02E, magasság: 1 m

Jelenlegi meteorológiai megfigyelések

A jelentés 1 órával és 3 perccel ezelõtt készült, 09:50 UTC
Dél-délnyugati szél 28 kt
Hőmérséklet 2°C
Páratartalom 75%
Légköri nyomás 990 hPa
Látótávolság 10 km, vagy több
felhőtlen 1500 m magasságban, és nincs gomolyfelhõ

METAR: ENBV 130950Z 20028KT CAVOK 02/M02 Q0990

Idő: 11:53 (10:53 UTC)

Előrejelzés

A jelentés 2 órával és 53 perccel ezelõtt készült, 08:00 UTC
Az előrejelzés 13-én 09 óra UTC és 13-én 18 óra UTC között érvényes
Déli szél 9 kt
Látótávolság 10 km, vagy több
Szórványos felhőzet 4000 lábon
13-én 09 óra UTC és 13-én 15 óra UTC között ideiglenes
Dél-délnyugati szél 15 kt széllökések: 25 kt
alacsony hófúvás

TAF: ENBV 130800Z 1309/1318 18009KT 9999 SCT040 TEMPO 1309/1315 21015G25KT DRSN

Meteorológiai megfigyelések és előrejelzések több, mint 4000 repülőtéren (METAR és TAF jelentéseket).

A térképen piros és sárga pontok jelzik az elérhető meteorológiai állomásokat.

Mozgassa az egeret a pont fölött, hogy megjelenjen az állomás neve.

Azután kattintson az időjárási megfigyelések és előrejelzések megtekintéséhez.

A térkép megváltoztatása: kattintson a fekete keresztel jelölt zöld gombra ráközelítéshez, a vonallal jelölt zöld gombra távolításhoz, vagy a zöld nyilakra a szomszédos térképek eléréséhez.


METAR-TAF: